sensor_id;sensor_type;location;lat;lon;timestamp;temperature;humidity
23147;DHT22;11742;53.532;-1.478;2023-08-17T00:01:38;23.40;78.20
23147;DHT22;11742;53.532;-1.478;2023-08-17T00:04:22;23.40;78.40
23147;DHT22;11742;53.532;-1.478;2023-08-17T00:07:06;23.40;78.40
23147;DHT22;11742;53.532;-1.478;2023-08-17T00:09:50;23.40;78.50
23147;DHT22;11742;53.532;-1.478;2023-08-17T00:12:34;23.30;78.50
23147;DHT22;11742;53.532;-1.478;2023-08-17T00:15:19;23.30;78.40
23147;DHT22;11742;53.532;-1.478;2023-08-17T00:18:03;23.30;78.70
23147;DHT22;11742;53.532;-1.478;2023-08-17T00:20:48;23.30;78.70
23147;DHT22;11742;53.532;-1.478;2023-08-17T00:23:32;23.20;78.60
23147;DHT22;11742;53.532;-1.478;2023-08-17T00:26:16;23.20;78.80
23147;DHT22;11742;53.532;-1.478;2023-08-17T00:29:00;23.20;78.80
23147;DHT22;11742;53.532;-1.478;2023-08-17T00:31:45;23.20;78.90
23147;DHT22;11742;53.532;-1.478;2023-08-17T00:34:29;23.20;79.00
23147;DHT22;11742;53.532;-1.478;2023-08-17T00:37:13;23.20;79.00
23147;DHT22;11742;53.532;-1.478;2023-08-17T00:39:57;23.20;79.10
23147;DHT22;11742;53.532;-1.478;2023-08-17T00:42:41;23.10;79.10
23147;DHT22;11742;53.532;-1.478;2023-08-17T00:45:26;23.10;79.20
23147;DHT22;11742;53.532;-1.478;2023-08-17T00:48:11;23.10;79.20
23147;DHT22;11742;53.532;-1.478;2023-08-17T00:50:57;23.10;79.40
23147;DHT22;11742;53.532;-1.478;2023-08-17T00:53:42;23.10;79.30
23147;DHT22;11742;53.532;-1.478;2023-08-17T00:56:26;23.00;79.50
23147;DHT22;11742;53.532;-1.478;2023-08-17T00:59:11;23.00;79.50
23147;DHT22;11742;53.532;-1.478;2023-08-17T01:01:55;23.00;79.60
23147;DHT22;11742;53.532;-1.478;2023-08-17T01:04:40;23.00;79.70
23147;DHT22;11742;53.532;-1.478;2023-08-17T01:07:24;23.00;79.80
23147;DHT22;11742;53.532;-1.478;2023-08-17T01:10:08;23.00;79.80
23147;DHT22;11742;53.532;-1.478;2023-08-17T01:12:57;23.00;80.00
23147;DHT22;11742;53.532;-1.478;2023-08-17T01:15:52;22.90;80.00
23147;DHT22;11742;53.532;-1.478;2023-08-17T01:18:40;22.90;80.00
23147;DHT22;11742;53.532;-1.478;2023-08-17T01:21:35;22.90;80.10
23147;DHT22;11742;53.532;-1.478;2023-08-17T01:24:20;22.90;80.20
23147;DHT22;11742;53.532;-1.478;2023-08-17T01:27:04;22.90;80.30
23147;DHT22;11742;53.532;-1.478;2023-08-17T01:29:48;22.80;80.30
23147;DHT22;11742;53.532;-1.478;2023-08-17T01:32:41;22.80;80.30
23147;DHT22;11742;53.532;-1.478;2023-08-17T01:35:47;22.80;80.30
23147;DHT22;11742;53.532;-1.478;2023-08-17T01:38:33;22.80;80.40
23147;DHT22;11742;53.532;-1.478;2023-08-17T01:41:20;22.70;80.40
23147;DHT22;11742;53.532;-1.478;2023-08-17T01:44:06;22.80;80.60
23147;DHT22;11742;53.532;-1.478;2023-08-17T01:46:51;22.70;80.60
23147;DHT22;11742;53.532;-1.478;2023-08-17T01:49:35;22.70;80.70
23147;DHT22;11742;53.532;-1.478;2023-08-17T01:52:19;22.70;80.70
23147;DHT22;11742;53.532;-1.478;2023-08-17T01:55:04;22.70;80.70
23147;DHT22;11742;53.532;-1.478;2023-08-17T01:57:48;22.70;80.90
23147;DHT22;11742;53.532;-1.478;2023-08-17T02:00:32;22.70;80.80
23147;DHT22;11742;53.532;-1.478;2023-08-17T02:03:17;22.60;80.90
23147;DHT22;11742;53.532;-1.478;2023-08-17T02:06:01;22.60;81.00
23147;DHT22;11742;53.532;-1.478;2023-08-17T02:08:45;22.60;81.00
23147;DHT22;11742;53.532;-1.478;2023-08-17T02:11:29;22.60;81.10
23147;DHT22;11742;53.532;-1.478;2023-08-17T02:14:14;22.60;81.20
23147;DHT22;11742;53.532;-1.478;2023-08-17T02:16:58;22.60;81.30
23147;DHT22;11742;53.532;-1.478;2023-08-17T02:19:42;22.60;81.30
23147;DHT22;11742;53.532;-1.478;2023-08-17T02:22:27;22.60;81.30
23147;DHT22;11742;53.532;-1.478;2023-08-17T02:25:11;22.60;81.30
23147;DHT22;11742;53.532;-1.478;2023-08-17T02:27:55;22.60;81.40
23147;DHT22;11742;53.532;-1.478;2023-08-17T02:30:39;22.60;81.50
23147;DHT22;11742;53.532;-1.478;2023-08-17T02:33:23;22.50;81.40
23147;DHT22;11742;53.532;-1.478;2023-08-17T02:36:08;22.50;81.50
23147;DHT22;11742;53.532;-1.478;2023-08-17T02:38:52;22.50;81.50
23147;DHT22;11742;53.532;-1.478;2023-08-17T02:41:37;22.50;81.50
23147;DHT22;11742;53.532;-1.478;2023-08-17T02:44:21;22.50;81.60
23147;DHT22;11742;53.532;-1.478;2023-08-17T02:47:06;22.50;81.70
23147;DHT22;11742;53.532;-1.478;2023-08-17T02:49:50;22.50;81.80
23147;DHT22;11742;53.532;-1.478;2023-08-17T02:52:34;22.50;81.70
23147;DHT22;11742;53.532;-1.478;2023-08-17T02:55:18;22.40;81.60
23147;DHT22;11742;53.532;-1.478;2023-08-17T02:58:03;22.40;81.80
23147;DHT22;11742;53.532;-1.478;2023-08-17T03:00:47;22.40;81.90
23147;DHT22;11742;53.532;-1.478;2023-08-17T03:03:35;22.40;82.00
23147;DHT22;11742;53.532;-1.478;2023-08-17T03:06:19;22.40;82.00
23147;DHT22;11742;53.532;-1.478;2023-08-17T03:09:03;22.40;82.10
23147;DHT22;11742;53.532;-1.478;2023-08-17T03:11:47;22.40;81.90
23147;DHT22;11742;53.532;-1.478;2023-08-17T03:14:32;22.40;82.00
23147;DHT22;11742;53.532;-1.478;2023-08-17T03:17:16;22.30;82.00
23147;DHT22;11742;53.532;-1.478;2023-08-17T03:20:00;22.30;82.00
23147;DHT22;11742;53.532;-1.478;2023-08-17T03:22:44;22.30;82.00
23147;DHT22;11742;53.532;-1.478;2023-08-17T03:25:28;22.30;82.10
23147;DHT22;11742;53.532;-1.478;2023-08-17T03:28:12;22.30;82.20
23147;DHT22;11742;53.532;-1.478;2023-08-17T03:30:56;22.30;82.20
23147;DHT22;11742;53.532;-1.478;2023-08-17T03:33:41;22.30;82.20
23147;DHT22;11742;53.532;-1.478;2023-08-17T03:36:25;22.30;83.10
23147;DHT22;11742;53.532;-1.478;2023-08-17T03:39:09;22.30;82.30
23147;DHT22;11742;53.532;-1.478;2023-08-17T03:41:54;22.20;82.20
23147;DHT22;11742;53.532;-1.478;2023-08-17T03:44:38;22.20;82.30
23147;DHT22;11742;53.532;-1.478;2023-08-17T03:47:22;22.20;82.40
23147;DHT22;11742;53.532;-1.478;2023-08-17T03:50:08;22.20;82.30
23147;DHT22;11742;53.532;-1.478;2023-08-17T03:52:52;22.20;82.40
23147;DHT22;11742;53.532;-1.478;2023-08-17T03:55:36;22.20;82.50
23147;DHT22;11742;53.532;-1.478;2023-08-17T03:58:21;22.20;82.30
23147;DHT22;11742;53.532;-1.478;2023-08-17T04:01:05;22.20;82.40
23147;DHT22;11742;53.532;-1.478;2023-08-17T04:03:50;22.20;82.50
23147;DHT22;11742;53.532;-1.478;2023-08-17T04:06:34;22.20;82.50
23147;DHT22;11742;53.532;-1.478;2023-08-17T04:09:20;22.20;82.50
23147;DHT22;11742;53.532;-1.478;2023-08-17T04:12:04;22.10;82.40
23147;DHT22;11742;53.532;-1.478;2023-08-17T04:14:49;22.10;82.60
23147;DHT22;11742;53.532;-1.478;2023-08-17T04:17:33;22.10;82.40
23147;DHT22;11742;53.532;-1.478;2023-08-17T04:20:18;22.10;82.50
23147;DHT22;11742;53.532;-1.478;2023-08-17T04:23:02;22.10;82.50
23147;DHT22;11742;53.532;-1.478;2023-08-17T04:25:47;22.10;82.60
23147;DHT22;11742;53.532;-1.478;2023-08-17T04:28:32;22.10;82.50
23147;DHT22;11742;53.532;-1.478;2023-08-17T04:31:16;22.10;82.50
23147;DHT22;11742;53.532;-1.478;2023-08-17T04:34:04;22.10;82.60
23147;DHT22;11742;53.532;-1.478;2023-08-17T04:36:49;22.10;82.60
23147;DHT22;11742;53.532;-1.478;2023-08-17T04:39:33;22.10;82.60
23147;DHT22;11742;53.532;-1.478;2023-08-17T04:42:18;22.10;82.60
23147;DHT22;11742;53.532;-1.478;2023-08-17T04:45:04;22.00;82.60
23147;DHT22;11742;53.532;-1.478;2023-08-17T04:47:48;22.00;82.50
23147;DHT22;11742;53.532;-1.478;2023-08-17T04:50:33;22.00;82.60
23147;DHT22;11742;53.532;-1.478;2023-08-17T04:53:17;22.00;82.80
23147;DHT22;11742;53.532;-1.478;2023-08-17T04:56:02;22.00;82.60
23147;DHT22;11742;53.532;-1.478;2023-08-17T04:58:46;22.00;82.70
23147;DHT22;11742;53.532;-1.478;2023-08-17T05:01:30;22.00;82.90
23147;DHT22;11742;53.532;-1.478;2023-08-17T05:04:15;22.00;82.80
23147;DHT22;11742;53.532;-1.478;2023-08-17T05:06:59;22.00;82.80
23147;DHT22;11742;53.532;-1.478;2023-08-17T05:09:44;22.00;82.80
23147;DHT22;11742;53.532;-1.478;2023-08-17T05:12:28;22.00;82.80
23147;DHT22;11742;53.532;-1.478;2023-08-17T05:15:12;21.90;82.90
23147;DHT22;11742;53.532;-1.478;2023-08-17T05:17:56;22.00;82.90
23147;DHT22;11742;53.532;-1.478;2023-08-17T05:20:40;21.90;82.80
23147;DHT22;11742;53.532;-1.478;2023-08-17T05:23:24;21.90;82.90
23147;DHT22;11742;53.532;-1.478;2023-08-17T05:26:08;21.90;82.80
23147;DHT22;11742;53.532;-1.478;2023-08-17T05:28:52;21.90;83.00
23147;DHT22;11742;53.532;-1.478;2023-08-17T05:31:37;21.90;83.90
23147;DHT22;11742;53.532;-1.478;2023-08-17T05:34:22;21.90;82.90
23147;DHT22;11742;53.532;-1.478;2023-08-17T05:37:07;21.90;83.00
23147;DHT22;11742;53.532;-1.478;2023-08-17T05:39:52;21.90;82.90
23147;DHT22;11742;53.532;-1.478;2023-08-17T05:42:36;21.90;83.00
23147;DHT22;11742;53.532;-1.478;2023-08-17T05:45:20;21.90;83.10
23147;DHT22;11742;53.532;-1.478;2023-08-17T05:48:04;21.90;83.00
23147;DHT22;11742;53.532;-1.478;2023-08-17T05:50:50;21.80;82.90
23147;DHT22;11742;53.532;-1.478;2023-08-17T05:53:34;21.80;82.90
23147;DHT22;11742;53.532;-1.478;2023-08-17T05:56:18;21.80;83.10
23147;DHT22;11742;53.532;-1.478;2023-08-17T05:59:02;21.80;83.10
23147;DHT22;11742;53.532;-1.478;2023-08-17T06:01:47;21.80;83.20
23147;DHT22;11742;53.532;-1.478;2023-08-17T06:04:31;21.80;83.20
23147;DHT22;11742;53.532;-1.478;2023-08-17T06:07:15;21.80;83.20
23147;DHT22;11742;53.532;-1.478;2023-08-17T06:10:02;21.80;83.20
23147;DHT22;11742;53.532;-1.478;2023-08-17T06:12:47;21.80;83.20
23147;DHT22;11742;53.532;-1.478;2023-08-17T06:15:31;21.80;83.20
23147;DHT22;11742;53.532;-1.478;2023-08-17T06:18:15;21.80;83.40
23147;DHT22;11742;53.532;-1.478;2023-08-17T06:20:59;21.80;83.30
23147;DHT22;11742;53.532;-1.478;2023-08-17T06:23:44;21.80;83.30
23147;DHT22;11742;53.532;-1.478;2023-08-17T06:26:28;21.80;83.30
23147;DHT22;11742;53.532;-1.478;2023-08-17T06:29:13;21.80;83.40
23147;DHT22;11742;53.532;-1.478;2023-08-17T06:31:57;21.80;83.40
23147;DHT22;11742;53.532;-1.478;2023-08-17T06:34:41;21.70;83.30
23147;DHT22;11742;53.532;-1.478;2023-08-17T06:37:26;21.70;83.30
23147;DHT22;11742;53.532;-1.478;2023-08-17T06:40:11;21.70;83.40
23147;DHT22;11742;53.532;-1.478;2023-08-17T06:42:55;21.70;83.40
23147;DHT22;11742;53.532;-1.478;2023-08-17T06:45:39;21.70;84.40
23147;DHT22;11742;53.532;-1.478;2023-08-17T06:48:24;21.70;83.30
23147;DHT22;11742;53.532;-1.478;2023-08-17T06:51:08;21.70;83.50
23147;DHT22;11742;53.532;-1.478;2023-08-17T06:53:52;21.70;83.40
23147;DHT22;11742;53.532;-1.478;2023-08-17T06:56:36;21.70;83.40
23147;DHT22;11742;53.532;-1.478;2023-08-17T06:59:20;21.70;83.40
23147;DHT22;11742;53.532;-1.478;2023-08-17T07:02:05;21.70;83.50
23147;DHT22;11742;53.532;-1.478;2023-08-17T07:04:49;21.70;83.50
23147;DHT22;11742;53.532;-1.478;2023-08-17T07:07:33;21.70;83.60
23147;DHT22;11742;53.532;-1.478;2023-08-17T07:10:17;21.70;83.60
23147;DHT22;11742;53.532;-1.478;2023-08-17T07:13:01;21.70;83.80
23147;DHT22;11742;53.532;-1.478;2023-08-17T07:15:47;21.70;83.80
23147;DHT22;11742;53.532;-1.478;2023-08-17T07:18:31;21.70;83.70
23147;DHT22;11742;53.532;-1.478;2023-08-17T07:21:15;21.70;83.80
23147;DHT22;11742;53.532;-1.478;2023-08-17T07:24:14;21.70;83.90
23147;DHT22;11742;53.532;-1.478;2023-08-17T07:26:58;21.70;83.80
23147;DHT22;11742;53.532;-1.478;2023-08-17T07:29:43;21.70;83.90
23147;DHT22;11742;53.532;-1.478;2023-08-17T07:32:27;21.70;83.90
23147;DHT22;11742;53.532;-1.478;2023-08-17T07:35:11;21.70;84.20
23147;DHT22;11742;53.532;-1.478;2023-08-17T07:37:55;21.70;84.00
23147;DHT22;11742;53.532;-1.478;2023-08-17T07:40:39;21.70;84.00
23147;DHT22;11742;53.532;-1.478;2023-08-17T07:43:23;21.80;84.00
23147;DHT22;11742;53.532;-1.478;2023-08-17T07:46:08;21.80;84.00
23147;DHT22;11742;53.532;-1.478;2023-08-17T07:48:52;21.80;83.90
23147;DHT22;11742;53.532;-1.478;2023-08-17T07:51:36;21.80;84.10
23147;DHT22;11742;53.532;-1.478;2023-08-17T07:54:20;21.80;83.90
23147;DHT22;11742;53.532;-1.478;2023-08-17T07:57:04;21.80;84.10
23147;DHT22;11742;53.532;-1.478;2023-08-17T07:59:49;21.80;83.90
23147;DHT22;11742;53.532;-1.478;2023-08-17T08:02:33;21.80;83.80
23147;DHT22;11742;53.532;-1.478;2023-08-17T08:05:17;21.80;83.80
23147;DHT22;11742;53.532;-1.478;2023-08-17T08:08:01;21.80;83.90
23147;DHT22;11742;53.532;-1.478;2023-08-17T08:10:46;21.80;83.90
23147;DHT22;11742;53.532;-1.478;2023-08-17T08:13:31;21.80;83.90
23147;DHT22;11742;53.532;-1.478;2023-08-17T08:16:15;21.80;84.80
23147;DHT22;11742;53.532;-1.478;2023-08-17T08:18:59;21.80;83.90
23147;DHT22;11742;53.532;-1.478;2023-08-17T08:21:44;21.80;83.80
23147;DHT22;11742;53.532;-1.478;2023-08-17T08:24:28;21.80;83.90
23147;DHT22;11742;53.532;-1.478;2023-08-17T08:27:17;21.80;84.00
23147;DHT22;11742;53.532;-1.478;2023-08-17T08:30:02;21.90;84.00
23147;DHT22;11742;53.532;-1.478;2023-08-17T08:32:46;21.80;83.90
23147;DHT22;11742;53.532;-1.478;2023-08-17T08:35:30;21.80;84.00
23147;DHT22;11742;53.532;-1.478;2023-08-17T08:38:14;21.80;84.00
23147;DHT22;11742;53.532;-1.478;2023-08-17T08:40:59;21.80;84.00
23147;DHT22;11742;53.532;-1.478;2023-08-17T08:43:43;21.90;84.00
23147;DHT22;11742;53.532;-1.478;2023-08-17T08:46:30;21.80;84.00
23147;DHT22;11742;53.532;-1.478;2023-08-17T08:49:19;21.80;83.90
23147;DHT22;11742;53.532;-1.478;2023-08-17T08:52:07;21.90;84.00
23147;DHT22;11742;53.532;-1.478;2023-08-17T08:54:54;21.80;84.00
23147;DHT22;11742;53.532;-1.478;2023-08-17T08:57:39;21.80;84.10
23147;DHT22;11742;53.532;-1.478;2023-08-17T09:00:25;21.80;84.00
23147;DHT22;11742;53.532;-1.478;2023-08-17T09:03:10;21.90;84.10
23147;DHT22;11742;53.532;-1.478;2023-08-17T09:05:55;21.90;84.00
23147;DHT22;11742;53.532;-1.478;2023-08-17T09:08:40;21.80;84.00
23147;DHT22;11742;53.532;-1.478;2023-08-17T09:11:25;21.80;84.00
23147;DHT22;11742;53.532;-1.478;2023-08-17T09:14:09;21.80;84.90
23147;DHT22;11742;53.532;-1.478;2023-08-17T09:16:53;21.80;84.10
23147;DHT22;11742;53.532;-1.478;2023-08-17T09:19:37;21.90;84.00
23147;DHT22;11742;53.532;-1.478;2023-08-17T09:25:43;21.90;84.20
23147;DHT22;11742;53.532;-1.478;2023-08-17T09:28:27;21.90;84.00
23147;DHT22;11742;53.532;-1.478;2023-08-17T09:31:12;21.90;84.00
23147;DHT22;11742;53.532;-1.478;2023-08-17T09:33:56;21.90;83.90
23147;DHT22;11742;53.532;-1.478;2023-08-17T09:36:41;22.00;84.10
23147;DHT22;11742;53.532;-1.478;2023-08-17T09:39:25;21.90;83.90
23147;DHT22;11742;53.532;-1.478;2023-08-17T09:42:09;21.90;83.80
23147;DHT22;11742;53.532;-1.478;2023-08-17T09:44:54;21.90;83.90
23147;DHT22;11742;53.532;-1.478;2023-08-17T09:47:42;22.00;84.00
23147;DHT22;11742;53.532;-1.478;2023-08-17T09:50:26;22.00;83.90
23147;DHT22;11742;53.532;-1.478;2023-08-17T09:53:15;22.00;83.90
23147;DHT22;11742;53.532;-1.478;2023-08-17T09:56:00;22.00;84.00
23147;DHT22;11742;53.532;-1.478;2023-08-17T09:58:45;22.00;84.00
23147;DHT22;11742;53.532;-1.478;2023-08-17T10:01:30;22.00;83.80
23147;DHT22;11742;53.532;-1.478;2023-08-17T10:04:18;22.00;83.80
23147;DHT22;11742;53.532;-1.478;2023-08-17T10:07:04;22.10;83.80
23147;DHT22;11742;53.532;-1.478;2023-08-17T10:10:06;22.10;83.80
23147;DHT22;11742;53.532;-1.478;2023-08-17T10:13:01;22.10;83.80
23147;DHT22;11742;53.532;-1.478;2023-08-17T10:16:00;22.10;83.60
23147;DHT22;11742;53.532;-1.478;2023-08-17T10:18:54;22.10;84.40
23147;DHT22;11742;53.532;-1.478;2023-08-17T10:24:30;22.20;83.70
23147;DHT22;11742;53.532;-1.478;2023-08-17T10:27:20;22.20;83.70
23147;DHT22;11742;53.532;-1.478;2023-08-17T10:30:05;22.20;83.80
23147;DHT22;11742;53.532;-1.478;2023-08-17T10:32:50;22.20;83.70
23147;DHT22;11742;53.532;-1.478;2023-08-17T10:35:35;22.30;83.70
23147;DHT22;11742;53.532;-1.478;2023-08-17T10:38:20;22.30;83.60
23147;DHT22;11742;53.532;-1.478;2023-08-17T10:41:12;22.30;83.60
23147;DHT22;11742;53.532;-1.478;2023-08-17T10:43:58;22.30;83.60
23147;DHT22;11742;53.532;-1.478;2023-08-17T10:46:43;22.40;83.50
23147;DHT22;11742;53.532;-1.478;2023-08-17T10:49:29;22.40;83.60
23147;DHT22;11742;53.532;-1.478;2023-08-17T10:52:13;22.40;83.70
23147;DHT22;11742;53.532;-1.478;2023-08-17T10:55:00;22.40;84.50
23147;DHT22;11742;53.532;-1.478;2023-08-17T10:57:45;22.40;83.70
23147;DHT22;11742;53.532;-1.478;2023-08-17T11:00:34;22.50;83.60
23147;DHT22;11742;53.532;-1.478;2023-08-17T11:03:22;22.50;83.50
23147;DHT22;11742;53.532;-1.478;2023-08-17T11:06:15;22.50;83.50
23147;DHT22;11742;53.532;-1.478;2023-08-17T11:09:06;22.60;83.50
23147;DHT22;11742;53.532;-1.478;2023-08-17T11:11:53;22.60;83.40
23147;DHT22;11742;53.532;-1.478;2023-08-17T11:14:38;22.60;83.20
23147;DHT22;11742;53.532;-1.478;2023-08-17T11:17:22;22.60;83.20
23147;DHT22;11742;53.532;-1.478;2023-08-17T11:20:07;22.70;83.20
23147;DHT22;11742;53.532;-1.478;2023-08-17T11:22:53;22.70;83.10
23147;DHT22;11742;53.532;-1.478;2023-08-17T11:25:38;22.70;83.10
23147;DHT22;11742;53.532;-1.478;2023-08-17T11:28:26;22.80;83.10
23147;DHT22;11742;53.532;-1.478;2023-08-17T11:31:12;22.80;83.10
23147;DHT22;11742;53.532;-1.478;2023-08-17T11:33:58;22.80;84.00
23147;DHT22;11742;53.532;-1.478;2023-08-17T11:36:43;22.90;83.20
23147;DHT22;11742;53.532;-1.478;2023-08-17T11:39:30;22.90;83.20
23147;DHT22;11742;53.532;-1.478;2023-08-17T11:42:16;22.90;83.10
23147;DHT22;11742;53.532;-1.478;2023-08-17T11:45:01;23.00;83.20
23147;DHT22;11742;53.532;-1.478;2023-08-17T11:47:47;23.00;83.10
23147;DHT22;11742;53.532;-1.478;2023-08-17T11:50:31;23.00;83.00
23147;DHT22;11742;53.532;-1.478;2023-08-17T11:53:16;23.10;83.10
23147;DHT22;11742;53.532;-1.478;2023-08-17T11:56:00;23.10;83.00
23147;DHT22;11742;53.532;-1.478;2023-08-17T11:58:46;23.20;83.00
23147;DHT22;11742;53.532;-1.478;2023-08-17T12:01:33;23.20;82.90
23147;DHT22;11742;53.532;-1.478;2023-08-17T12:04:21;23.30;82.90
23147;DHT22;11742;53.532;-1.478;2023-08-17T12:07:06;23.30;82.80
23147;DHT22;11742;53.532;-1.478;2023-08-17T12:09:51;23.40;82.90
23147;DHT22;11742;53.532;-1.478;2023-08-17T12:12:38;23.40;82.80
23147;DHT22;11742;53.532;-1.478;2023-08-17T12:15:24;23.40;82.80
23147;DHT22;11742;53.532;-1.478;2023-08-17T12:18:09;23.50;82.70
23147;DHT22;11742;53.532;-1.478;2023-08-17T12:20:54;23.50;82.70
23147;DHT22;11742;53.532;-1.478;2023-08-17T12:23:39;23.50;82.60
23147;DHT22;11742;53.532;-1.478;2023-08-17T12:26:23;23.60;82.70
23147;DHT22;11742;53.532;-1.478;2023-08-17T12:29:07;23.70;82.70
23147;DHT22;11742;53.532;-1.478;2023-08-17T12:31:52;23.70;82.60
23147;DHT22;11742;53.532;-1.478;2023-08-17T12:34:36;23.80;82.40
23147;DHT22;11742;53.532;-1.478;2023-08-17T12:37:20;23.80;82.60
23147;DHT22;11742;53.532;-1.478;2023-08-17T12:40:05;23.80;82.50
23147;DHT22;11742;53.532;-1.478;2023-08-17T12:42:49;23.90;82.40
23147;DHT22;11742;53.532;-1.478;2023-08-17T12:45:33;24.00;82.50
23147;DHT22;11742;53.532;-1.478;2023-08-17T12:48:18;24.10;82.50
23147;DHT22;11742;53.532;-1.478;2023-08-17T12:51:02;24.10;82.40
23147;DHT22;11742;53.532;-1.478;2023-08-17T12:53:47;24.20;82.50
23147;DHT22;11742;53.532;-1.478;2023-08-17T12:56:30;24.20;82.30
23147;DHT22;11742;53.532;-1.478;2023-08-17T12:59:15;24.30;82.30
23147;DHT22;11742;53.532;-1.478;2023-08-17T13:01:59;24.40;82.20
23147;DHT22;11742;53.532;-1.478;2023-08-17T13:04:43;24.40;82.00
23147;DHT22;11742;53.532;-1.478;2023-08-17T13:07:28;24.50;82.00
23147;DHT22;11742;53.532;-1.478;2023-08-17T13:10:12;24.60;81.50
23147;DHT22;11742;53.532;-1.478;2023-08-17T13:12:56;24.60;81.50
23147;DHT22;11742;53.532;-1.478;2023-08-17T13:15:43;24.60;81.50
23147;DHT22;11742;53.532;-1.478;2023-08-17T13:18:27;24.70;81.40
23147;DHT22;11742;53.532;-1.478;2023-08-17T13:21:13;24.70;81.50
23147;DHT22;11742;53.532;-1.478;2023-08-17T13:23:59;24.80;81.00
23147;DHT22;11742;53.532;-1.478;2023-08-17T13:26:44;24.80;81.10
23147;DHT22;11742;53.532;-1.478;2023-08-17T13:29:28;24.90;81.20
23147;DHT22;11742;53.532;-1.478;2023-08-17T13:32:12;24.90;80.60
23147;DHT22;11742;53.532;-1.478;2023-08-17T13:34:56;24.90;80.60
23147;DHT22;11742;53.532;-1.478;2023-08-17T13:37:41;24.90;80.50
23147;DHT22;11742;53.532;-1.478;2023-08-17T13:40:25;25.00;80.40
23147;DHT22;11742;53.532;-1.478;2023-08-17T13:43:09;25.00;80.40
23147;DHT22;11742;53.532;-1.478;2023-08-17T13:45:56;25.00;80.00
23147;DHT22;11742;53.532;-1.478;2023-08-17T13:48:40;25.00;80.30
23147;DHT22;11742;53.532;-1.478;2023-08-17T13:51:25;25.10;80.30
23147;DHT22;11742;53.532;-1.478;2023-08-17T13:54:09;25.10;80.20
23147;DHT22;11742;53.532;-1.478;2023-08-17T13:56:53;25.10;80.20
23147;DHT22;11742;53.532;-1.478;2023-08-17T13:59:37;25.10;80.10
23147;DHT22;11742;53.532;-1.478;2023-08-17T14:02:21;25.20;80.30
23147;DHT22;11742;53.532;-1.478;2023-08-17T14:05:06;25.30;80.00
23147;DHT22;11742;53.532;-1.478;2023-08-17T14:07:51;25.30;79.30
23147;DHT22;11742;53.532;-1.478;2023-08-17T14:10:35;25.30;79.70
23147;DHT22;11742;53.532;-1.478;2023-08-17T14:13:20;25.30;79.20
23147;DHT22;11742;53.532;-1.478;2023-08-17T14:16:04;25.30;79.20
23147;DHT22;11742;53.532;-1.478;2023-08-17T14:18:49;25.30;79.30
23147;DHT22;11742;53.532;-1.478;2023-08-17T14:21:33;25.40;79.20
23147;DHT22;11742;53.532;-1.478;2023-08-17T14:24:17;25.40;79.50
23147;DHT22;11742;53.532;-1.478;2023-08-17T14:27:01;25.40;79.30
23147;DHT22;11742;53.532;-1.478;2023-08-17T14:29:45;25.50;79.20
23147;DHT22;11742;53.532;-1.478;2023-08-17T14:32:29;25.50;78.90
23147;DHT22;11742;53.532;-1.478;2023-08-17T14:35:14;25.50;78.70
23147;DHT22;11742;53.532;-1.478;2023-08-17T14:37:58;25.50;78.60
23147;DHT22;11742;53.532;-1.478;2023-08-17T14:40:47;25.50;78.70
23147;DHT22;11742;53.532;-1.478;2023-08-17T14:43:31;25.60;78.60
23147;DHT22;11742;53.532;-1.478;2023-08-17T14:46:15;25.60;78.70
23147;DHT22;11742;53.532;-1.478;2023-08-17T14:49:00;25.60;78.80
23147;DHT22;11742;53.532;-1.478;2023-08-17T14:51:44;25.70;78.70
23147;DHT22;11742;53.532;-1.478;2023-08-17T14:54:28;25.70;78.40
23147;DHT22;11742;53.532;-1.478;2023-08-17T14:57:12;25.80;78.50
23147;DHT22;11742;53.532;-1.478;2023-08-17T14:59:56;25.80;78.70
23147;DHT22;11742;53.532;-1.478;2023-08-17T15:02:40;25.80;78.60
23147;DHT22;11742;53.532;-1.478;2023-08-17T15:05:25;25.80;78.50
23147;DHT22;11742;53.532;-1.478;2023-08-17T15:08:09;25.80;78.00
23147;DHT22;11742;53.532;-1.478;2023-08-17T15:10:53;25.80;78.00
23147;DHT22;11742;53.532;-1.478;2023-08-17T15:13:37;25.90;77.70
23147;DHT22;11742;53.532;-1.478;2023-08-17T15:16:22;25.90;77.70
23147;DHT22;11742;53.532;-1.478;2023-08-17T15:19:11;25.90;77.80
23147;DHT22;11742;53.532;-1.478;2023-08-17T15:21:55;25.90;77.90
23147;DHT22;11742;53.532;-1.478;2023-08-17T15:24:39;25.90;78.00
23147;DHT22;11742;53.532;-1.478;2023-08-17T15:27:23;25.90;77.90
23147;DHT22;11742;53.532;-1.478;2023-08-17T15:30:08;26.00;77.80
23147;DHT22;11742;53.532;-1.478;2023-08-17T15:32:52;26.00;77.20
23147;DHT22;11742;53.532;-1.478;2023-08-17T15:35:36;26.10;77.70
23147;DHT22;11742;53.532;-1.478;2023-08-17T15:38:20;26.10;77.70
23147;DHT22;11742;53.532;-1.478;2023-08-17T15:41:04;26.10;77.40
23147;DHT22;11742;53.532;-1.478;2023-08-17T15:43:49;26.10;77.00
23147;DHT22;11742;53.532;-1.478;2023-08-17T15:46:34;26.10;77.10
23147;DHT22;11742;53.532;-1.478;2023-08-17T15:49:18;26.10;77.10
23147;DHT22;11742;53.532;-1.478;2023-08-17T15:52:02;26.20;77.10
23147;DHT22;11742;53.532;-1.478;2023-08-17T15:54:47;26.20;77.00
23147;DHT22;11742;53.532;-1.478;2023-08-17T15:57:30;26.20;77.00
23147;DHT22;11742;53.532;-1.478;2023-08-17T16:00:15;26.20;76.60
23147;DHT22;11742;53.532;-1.478;2023-08-17T16:02:59;26.20;76.70
23147;DHT22;11742;53.532;-1.478;2023-08-17T16:05:43;26.20;76.50
23147;DHT22;11742;53.532;-1.478;2023-08-17T16:08:27;26.30;76.50
23147;DHT22;11742;53.532;-1.478;2023-08-17T16:11:11;26.30;77.20
23147;DHT22;11742;53.532;-1.478;2023-08-17T16:13:56;26.30;76.30
23147;DHT22;11742;53.532;-1.478;2023-08-17T16:16:40;26.30;76.30
23147;DHT22;11742;53.532;-1.478;2023-08-17T16:19:24;26.30;76.50
23147;DHT22;11742;53.532;-1.478;2023-08-17T16:22:08;26.30;76.50
23147;DHT22;11742;53.532;-1.478;2023-08-17T16:24:52;26.30;76.10
23147;DHT22;11742;53.532;-1.478;2023-08-17T16:27:37;26.30;75.70
23147;DHT22;11742;53.532;-1.478;2023-08-17T16:30:21;26.30;75.70
23147;DHT22;11742;53.532;-1.478;2023-08-17T16:33:05;26.30;75.70
23147;DHT22;11742;53.532;-1.478;2023-08-17T16:35:49;26.30;76.00
23147;DHT22;11742;53.532;-1.478;2023-08-17T16:38:34;26.30;75.70
23147;DHT22;11742;53.532;-1.478;2023-08-17T16:41:18;26.40;75.80
23147;DHT22;11742;53.532;-1.478;2023-08-17T16:44:02;26.30;75.90
23147;DHT22;11742;53.532;-1.478;2023-08-17T16:46:47;26.40;76.00
23147;DHT22;11742;53.532;-1.478;2023-08-17T16:49:33;26.30;75.60
23147;DHT22;11742;53.532;-1.478;2023-08-17T16:52:20;26.40;75.60
23147;DHT22;11742;53.532;-1.478;2023-08-17T16:55:05;26.40;75.70
23147;DHT22;11742;53.532;-1.478;2023-08-17T16:57:49;26.40;75.30
23147;DHT22;11742;53.532;-1.478;2023-08-17T17:00:34;26.30;74.90
23147;DHT22;11742;53.532;-1.478;2023-08-17T17:03:19;26.30;75.10
23147;DHT22;11742;53.532;-1.478;2023-08-17T17:06:03;26.30;74.90
23147;DHT22;11742;53.532;-1.478;2023-08-17T17:08:47;26.30;74.60
23147;DHT22;11742;53.532;-1.478;2023-08-17T17:11:32;26.30;74.80